sensor_id;sensor_type;location;lat;lon;timestamp;pressure;altitude;pressure_sealevel;temperature;humidity
7668;BME280;3876;42.204;24.686;2022-08-19T00:01:20;98918.69;;;27.00;60.70
7668;BME280;3876;42.204;24.686;2022-08-19T00:03:48;98917.53;;;27.03;60.74
7668;BME280;3876;42.204;24.686;2022-08-19T00:06:15;98912.41;;;27.01;61.52
7668;BME280;3876;42.204;24.686;2022-08-19T00:08:42;98911.44;;;27.02;61.91
7668;BME280;3876;42.204;24.686;2022-08-19T00:11:11;98906.50;;;26.99;62.27
7668;BME280;3876;42.204;24.686;2022-08-19T00:13:37;98908.31;;;26.91;62.20
7668;BME280;3876;42.204;24.686;2022-08-19T00:16:05;98908.13;;;26.84;62.34
7668;BME280;3876;42.204;24.686;2022-08-19T00:18:32;98916.34;;;26.89;62.73
7668;BME280;3876;42.204;24.686;2022-08-19T00:21:01;98913.72;;;26.81;62.36
7668;BME280;3876;42.204;24.686;2022-08-19T00:23:28;98901.78;;;26.61;62.38
7668;BME280;3876;42.204;24.686;2022-08-19T00:25:55;98894.34;;;26.48;62.59
7668;BME280;3876;42.204;24.686;2022-08-19T00:28:22;98907.63;;;26.47;63.31
7668;BME280;3876;42.204;24.686;2022-08-19T00:30:51;98905.97;;;26.38;63.22
7668;BME280;3876;42.204;24.686;2022-08-19T00:33:18;98904.28;;;26.29;63.67
7668;BME280;3876;42.204;24.686;2022-08-19T00:35:45;98899.47;;;26.24;63.79
7668;BME280;3876;42.204;24.686;2022-08-19T00:38:13;98890.94;;;26.22;64.24
7668;BME280;3876;42.204;24.686;2022-08-19T00:40:42;98885.47;;;26.16;64.01
7668;BME280;3876;42.204;24.686;2022-08-19T00:43:12;98892.22;;;26.18;64.47
7668;BME280;3876;42.204;24.686;2022-08-19T00:45:40;98886.59;;;26.13;64.43
7668;BME280;3876;42.204;24.686;2022-08-19T00:48:09;98888.63;;;26.19;64.83
7668;BME280;3876;42.204;24.686;2022-08-19T00:50:36;98893.34;;;26.16;64.49
7668;BME280;3876;42.204;24.686;2022-08-19T00:53:03;98900.31;;;25.99;66.16
7668;BME280;3876;42.204;24.686;2022-08-19T00:55:33;98890.44;;;25.93;65.66
7668;BME280;3876;42.204;24.686;2022-08-19T00:58:04;98884.97;;;25.86;66.19
7668;BME280;3876;42.204;24.686;2022-08-19T01:00:34;98878.28;;;25.66;66.96
7668;BME280;3876;42.204;24.686;2022-08-19T01:03:02;98878.59;;;25.63;67.25
7668;BME280;3876;42.204;24.686;2022-08-19T01:05:29;98866.75;;;25.59;67.82
7668;BME280;3876;42.204;24.686;2022-08-19T01:07:59;98861.81;;;25.56;67.64
7668;BME280;3876;42.204;24.686;2022-08-19T01:10:29;98878.75;;;25.62;67.84
7668;BME280;3876;42.204;24.686;2022-08-19T01:12:59;98884.66;;;25.64;68.05
7668;BME280;3876;42.204;24.686;2022-08-19T01:15:31;98876.66;;;25.65;67.75
7668;BME280;3876;42.204;24.686;2022-08-19T01:18:00;98877.63;;;25.64;68.03
7668;BME280;3876;42.204;24.686;2022-08-19T01:20:27;98878.28;;;25.66;68.27
7668;BME280;3876;42.204;24.686;2022-08-19T01:22:57;98870.72;;;25.63;68.63
7668;BME280;3876;42.204;24.686;2022-08-19T01:25:29;98869.53;;;25.57;68.69
7668;BME280;3876;42.204;24.686;2022-08-19T01:27:57;98898.66;;;25.29;69.58
7668;BME280;3876;42.204;24.686;2022-08-19T01:30:27;98898.97;;;24.81;70.30
7668;BME280;3876;42.204;24.686;2022-08-19T01:32:55;98900.38;;;24.75;71.13
7668;BME280;3876;42.204;24.686;2022-08-19T01:35:25;98907.44;;;24.75;70.86
7668;BME280;3876;42.204;24.686;2022-08-19T01:37:53;98908.34;;;24.56;71.23
7668;BME280;3876;42.204;24.686;2022-08-19T01:40:25;98908.47;;;24.37;72.15
7668;BME280;3876;42.204;24.686;2022-08-19T01:42:53;98909.44;;;24.36;72.43
7668;BME280;3876;42.204;24.686;2022-08-19T01:45:22;98904.38;;;24.25;73.31
7668;BME280;3876;42.204;24.686;2022-08-19T01:47:50;98917.34;;;24.26;73.47
7668;BME280;3876;42.204;24.686;2022-08-19T01:50:16;98919.13;;;24.26;73.75
7668;BME280;3876;42.204;24.686;2022-08-19T01:52:44;98916.09;;;24.21;73.78
7668;BME280;3876;42.204;24.686;2022-08-19T01:55:13;98916.81;;;24.23;74.01
7668;BME280;3876;42.204;24.686;2022-08-19T01:57:46;98926.41;;;24.32;74.13
7668;BME280;3876;42.204;24.686;2022-08-19T02:00:17;98926.16;;;24.25;74.09
7668;BME280;3876;42.204;24.686;2022-08-19T02:02:44;98926.16;;;24.25;73.83
7668;BME280;3876;42.204;24.686;2022-08-19T02:05:11;98928.34;;;24.30;73.69
7668;BME280;3876;42.204;24.686;2022-08-19T02:07:39;98931.06;;;24.38;74.18
7668;BME280;3876;42.204;24.686;2022-08-19T02:10:09;98926.66;;;24.38;73.58
7668;BME280;3876;42.204;24.686;2022-08-19T02:12:37;98928.75;;;24.35;73.82
7668;BME280;3876;42.204;24.686;2022-08-19T02:15:06;98931.91;;;24.38;73.44
7668;BME280;3876;42.204;24.686;2022-08-19T02:17:33;98931.38;;;24.35;73.99
7668;BME280;3876;42.204;24.686;2022-08-19T02:20:00;98933.34;;;24.23;74.91
7668;BME280;3876;42.204;24.686;2022-08-19T02:22:27;98931.69;;;24.22;74.61
7668;BME280;3876;42.204;24.686;2022-08-19T02:24:53;98936.50;;;24.27;74.70
7668;BME280;3876;42.204;24.686;2022-08-19T02:27:20;98935.25;;;24.31;75.06
7668;BME280;3876;42.204;24.686;2022-08-19T02:29:47;98937.44;;;24.35;75.32
7668;BME280;3876;42.204;24.686;2022-08-19T02:32:15;98944.84;;;24.40;75.27
7668;BME280;3876;42.204;24.686;2022-08-19T02:34:43;98943.22;;;24.39;74.56
7668;BME280;3876;42.204;24.686;2022-08-19T02:37:09;98950.38;;;24.37;74.89
7668;BME280;3876;42.204;24.686;2022-08-19T02:39:56;98958.41;;;24.35;74.78
7668;BME280;3876;42.204;24.686;2022-08-19T02:42:22;98961.16;;;24.34;74.67
7668;BME280;3876;42.204;24.686;2022-08-19T02:44:48;98953.28;;;24.34;74.60
7668;BME280;3876;42.204;24.686;2022-08-19T02:47:16;98954.78;;;24.36;74.34
7668;BME280;3876;42.204;24.686;2022-08-19T02:49:43;98966.94;;;24.37;74.51
7668;BME280;3876;42.204;24.686;2022-08-19T02:52:10;98964.88;;;24.31;74.54
7668;BME280;3876;42.204;24.686;2022-08-19T02:54:37;98962.41;;;24.30;74.84
7668;BME280;3876;42.204;24.686;2022-08-19T02:57:04;98965.00;;;24.30;75.36
7668;BME280;3876;42.204;24.686;2022-08-19T02:59:31;98969.75;;;24.26;75.38
7668;BME280;3876;42.204;24.686;2022-08-19T03:01:58;98962.97;;;24.24;75.40
7668;BME280;3876;42.204;24.686;2022-08-19T03:04:26;98962.59;;;24.19;76.13
7668;BME280;3876;42.204;24.686;2022-08-19T03:06:53;98967.81;;;24.19;76.18
7668;BME280;3876;42.204;24.686;2022-08-19T03:09:20;98966.16;;;24.18;75.99
7668;BME280;3876;42.204;24.686;2022-08-19T03:11:47;98972.22;;;24.18;75.62
7668;BME280;3876;42.204;24.686;2022-08-19T03:14:13;98974.72;;;24.20;75.98
7668;BME280;3876;42.204;24.686;2022-08-19T03:16:41;98975.53;;;24.20;75.34
7668;BME280;3876;42.204;24.686;2022-08-19T03:19:08;98978.03;;;24.12;75.84
7668;BME280;3876;42.204;24.686;2022-08-19T03:21:36;98976.63;;;24.08;76.12
7668;BME280;3876;42.204;24.686;2022-08-19T03:24:03;98981.03;;;24.08;76.09
7668;BME280;3876;42.204;24.686;2022-08-19T03:26:30;98979.81;;;24.02;76.26
7668;BME280;3876;42.204;24.686;2022-08-19T03:28:57;98985.47;;;23.97;76.36
7668;BME280;3876;42.204;24.686;2022-08-19T03:31:24;98985.75;;;23.94;76.16
7668;BME280;3876;42.204;24.686;2022-08-19T03:33:51;98989.34;;;23.93;76.22
7668;BME280;3876;42.204;24.686;2022-08-19T03:36:19;98991.28;;;23.91;76.45
7668;BME280;3876;42.204;24.686;2022-08-19T03:38:50;98993.09;;;23.91;76.13
7668;BME280;3876;42.204;24.686;2022-08-19T03:41:18;98988.66;;;23.91;76.09
7668;BME280;3876;42.204;24.686;2022-08-19T03:43:45;98989.94;;;23.87;76.61
7668;BME280;3876;42.204;24.686;2022-08-19T03:46:14;98991.28;;;23.82;76.26
7668;BME280;3876;42.204;24.686;2022-08-19T03:48:41;98990.72;;;23.78;76.67
7668;BME280;3876;42.204;24.686;2022-08-19T03:51:14;98998.88;;;23.75;76.65
7668;BME280;3876;42.204;24.686;2022-08-19T03:53:41;99002.75;;;23.71;76.79
7668;BME280;3876;42.204;24.686;2022-08-19T03:56:09;99013.63;;;23.67;77.07
7668;BME280;3876;42.204;24.686;2022-08-19T03:58:38;99014.19;;;23.51;77.07
7668;BME280;3876;42.204;24.686;2022-08-19T04:01:06;99011.34;;;23.33;77.57
7668;BME280;3876;42.204;24.686;2022-08-19T04:03:33;99009.44;;;23.26;78.16
7668;BME280;3876;42.204;24.686;2022-08-19T04:06:08;99013.00;;;23.25;78.73
7668;BME280;3876;42.204;24.686;2022-08-19T04:08:36;99006.13;;;23.24;79.46
7668;BME280;3876;42.204;24.686;2022-08-19T04:11:05;99020.03;;;23.24;79.21
7668;BME280;3876;42.204;24.686;2022-08-19T04:13:34;99018.91;;;23.27;79.29
7668;BME280;3876;42.204;24.686;2022-08-19T04:16:01;99021.97;;;23.32;79.55
7668;BME280;3876;42.204;24.686;2022-08-19T04:18:27;99022.38;;;23.37;79.65
7668;BME280;3876;42.204;24.686;2022-08-19T04:20:55;99011.91;;;23.37;79.35
7668;BME280;3876;42.204;24.686;2022-08-19T04:23:22;99027.38;;;23.40;79.69
7668;BME280;3876;42.204;24.686;2022-08-19T04:25:48;99018.28;;;23.44;79.63
7668;BME280;3876;42.204;24.686;2022-08-19T04:28:15;99015.69;;;23.44;79.33
7668;BME280;3876;42.204;24.686;2022-08-19T04:30:44;99016.34;;;23.46;78.92
7668;BME280;3876;42.204;24.686;2022-08-19T04:33:11;99021.19;;;23.41;79.39
7668;BME280;3876;42.204;24.686;2022-08-19T04:35:39;99023.53;;;23.44;79.62
7668;BME280;3876;42.204;24.686;2022-08-19T04:38:06;99026.03;;;23.55;79.82
7668;BME280;3876;42.204;24.686;2022-08-19T04:40:33;99018.03;;;23.66;79.40
7668;BME280;3876;42.204;24.686;2022-08-19T04:43:17;99019.69;;;23.86;79.69
7668;BME280;3876;42.204;24.686;2022-08-19T04:45:45;99019.94;;;24.02;79.19
7668;BME280;3876;42.204;24.686;2022-08-19T04:48:12;99012.63;;;24.16;78.45
7668;BME280;3876;42.204;24.686;2022-08-19T04:50:39;99017.53;;;24.38;77.97
7668;BME280;3876;42.204;24.686;2022-08-19T04:53:06;99021.59;;;24.60;77.10
7668;BME280;3876;42.204;24.686;2022-08-19T04:55:33;99023.75;;;24.83;75.95
7668;BME280;3876;42.204;24.686;2022-08-19T04:58:00;99025.00;;;25.06;75.00
7668;BME280;3876;42.204;24.686;2022-08-19T05:00:27;99027.88;;;25.31;74.44
7668;BME280;3876;42.204;24.686;2022-08-19T05:02:55;99026.22;;;25.57;74.29
7668;BME280;3876;42.204;24.686;2022-08-19T05:05:22;99028.75;;;25.84;73.62
7668;BME280;3876;42.204;24.686;2022-08-19T05:07:48;99033.88;;;26.11;72.72
7668;BME280;3876;42.204;24.686;2022-08-19T05:10:15;99036.03;;;26.34;73.40
7668;BME280;3876;42.204;24.686;2022-08-19T05:12:41;99022.84;;;26.51;71.78
7668;BME280;3876;42.204;24.686;2022-08-19T05:15:08;99040.56;;;26.75;69.81
7668;BME280;3876;42.204;24.686;2022-08-19T05:17:36;99038.88;;;27.00;70.10
7668;BME280;3876;42.204;24.686;2022-08-19T05:20:09;99039.75;;;27.25;69.24
7668;BME280;3876;42.204;24.686;2022-08-19T05:22:53;99043.50;;;27.56;67.82
7668;BME280;3876;42.204;24.686;2022-08-19T05:25:20;99044.84;;;27.84;66.62
7668;BME280;3876;42.204;24.686;2022-08-19T05:27:47;99043.53;;;28.12;65.11
7668;BME280;3876;42.204;24.686;2022-08-19T05:30:14;99036.59;;;28.36;62.66
7668;BME280;3876;42.204;24.686;2022-08-19T05:32:41;99037.03;;;28.55;63.62
7668;BME280;3876;42.204;24.686;2022-08-19T05:35:09;99044.25;;;28.78;62.33
7668;BME280;3876;42.204;24.686;2022-08-19T05:37:36;99039.03;;;29.00;59.79
7668;BME280;3876;42.204;24.686;2022-08-19T05:40:05;99046.34;;;29.21;58.73
7668;BME280;3876;42.204;24.686;2022-08-19T05:42:32;99050.09;;;29.35;57.92
7668;BME280;3876;42.204;24.686;2022-08-19T05:44:58;99053.34;;;29.45;55.84
7668;BME280;3876;42.204;24.686;2022-08-19T05:47:25;99049.38;;;29.49;54.32
7668;BME280;3876;42.204;24.686;2022-08-19T05:49:52;99042.69;;;29.61;55.12
7668;BME280;3876;42.204;24.686;2022-08-19T05:52:20;99038.00;;;29.71;55.50
7668;BME280;3876;42.204;24.686;2022-08-19T05:54:46;99048.97;;;29.83;56.11
7668;BME280;3876;42.204;24.686;2022-08-19T05:57:16;99041.28;;;29.96;55.64
7668;BME280;3876;42.204;24.686;2022-08-19T05:59:42;99052.19;;;30.15;53.66
7668;BME280;3876;42.204;24.686;2022-08-19T06:02:16;99043.72;;;30.20;53.12
7668;BME280;3876;42.204;24.686;2022-08-19T06:04:43;99043.16;;;30.25;54.73
7668;BME280;3876;42.204;24.686;2022-08-19T06:07:09;99048.81;;;30.21;54.88
7668;BME280;3876;42.204;24.686;2022-08-19T06:09:37;99049.69;;;30.37;53.68
7668;BME280;3876;42.204;24.686;2022-08-19T06:12:04;99048.16;;;30.57;52.87
7668;BME280;3876;42.204;24.686;2022-08-19T06:14:32;99056.28;;;30.70;52.53
7668;BME280;3876;42.204;24.686;2022-08-19T06:16:59;99052.81;;;30.84;51.90
7668;BME280;3876;42.204;24.686;2022-08-19T06:19:27;99057.38;;;30.90;49.92
7668;BME280;3876;42.204;24.686;2022-08-19T06:21:55;99064.53;;;31.04;50.23
7668;BME280;3876;42.204;24.686;2022-08-19T06:24:23;99058.84;;;31.07;51.89
7668;BME280;3876;42.204;24.686;2022-08-19T06:26:53;99064.94;;;31.22;49.38
7668;BME280;3876;42.204;24.686;2022-08-19T06:29:22;99065.09;;;31.36;49.74
7668;BME280;3876;42.204;24.686;2022-08-19T06:31:50;99064.28;;;31.50;49.61
7668;BME280;3876;42.204;24.686;2022-08-19T06:34:17;99069.44;;;31.58;46.62
7668;BME280;3876;42.204;24.686;2022-08-19T06:36:47;99063.13;;;31.59;47.68
7668;BME280;3876;42.204;24.686;2022-08-19T06:39:16;99061.25;;;31.38;50.06
7668;BME280;3876;42.204;24.686;2022-08-19T06:41:44;99068.31;;;31.67;49.77
7668;BME280;3876;42.204;24.686;2022-08-19T06:44:12;99071.47;;;31.77;48.79
7668;BME280;3876;42.204;24.686;2022-08-19T06:46:40;99075.13;;;31.97;46.55
7668;BME280;3876;42.204;24.686;2022-08-19T06:49:07;99056.66;;;32.04;47.42
7668;BME280;3876;42.204;24.686;2022-08-19T06:51:34;99061.00;;;32.11;47.31
7668;BME280;3876;42.204;24.686;2022-08-19T06:54:00;99060.84;;;32.19;46.24
7668;BME280;3876;42.204;24.686;2022-08-19T06:56:31;99063.38;;;32.28;45.83
7668;BME280;3876;42.204;24.686;2022-08-19T06:58:59;99045.91;;;32.40;45.51
7668;BME280;3876;42.204;24.686;2022-08-19T07:01:28;99061.84;;;32.74;45.06
7668;BME280;3876;42.204;24.686;2022-08-19T07:03:55;99072.00;;;32.98;45.84
7668;BME280;3876;42.204;24.686;2022-08-19T07:06:22;99075.34;;;33.13;42.97
7668;BME280;3876;42.204;24.686;2022-08-19T07:08:49;99061.50;;;33.24;42.61
7668;BME280;3876;42.204;24.686;2022-08-19T07:11:17;99066.06;;;33.44;44.09
7668;BME280;3876;42.204;24.686;2022-08-19T07:13:44;99064.44;;;33.49;43.92
7668;BME280;3876;42.204;24.686;2022-08-19T07:16:13;99060.56;;;33.52;44.96
7668;BME280;3876;42.204;24.686;2022-08-19T07:18:42;99060.44;;;33.73;44.17
7668;BME280;3876;42.204;24.686;2022-08-19T07:21:12;99053.06;;;33.88;43.53
7668;BME280;3876;42.204;24.686;2022-08-19T07:23:39;99039.78;;;34.01;42.98
7668;BME280;3876;42.204;24.686;2022-08-19T07:26:07;99050.66;;;34.13;42.97
7668;BME280;3876;42.204;24.686;2022-08-19T07:28:34;99050.88;;;34.11;44.07
7668;BME280;3876;42.204;24.686;2022-08-19T07:31:05;99062.28;;;34.32;42.30
7668;BME280;3876;42.204;24.686;2022-08-19T07:33:32;99058.41;;;34.41;42.57
7668;BME280;3876;42.204;24.686;2022-08-19T07:36:04;99060.84;;;34.62;42.30
7668;BME280;3876;42.204;24.686;2022-08-19T07:38:31;99057.94;;;34.83;42.71
7668;BME280;3876;42.204;24.686;2022-08-19T07:40:59;99041.13;;;34.89;41.54
7668;BME280;3876;42.204;24.686;2022-08-19T07:43:26;99053.31;;;35.16;39.44
7668;BME280;3876;42.204;24.686;2022-08-19T07:45:54;99056.59;;;35.18;40.50
7668;BME280;3876;42.204;24.686;2022-08-19T07:48:29;99050.66;;;35.03;41.04
7668;BME280;3876;42.204;24.686;2022-08-19T07:50:58;99048.81;;;35.04;42.72
7668;BME280;3876;42.204;24.686;2022-08-19T07:53:29;99051.88;;;35.20;41.52
7668;BME280;3876;42.204;24.686;2022-08-19T07:55:58;99050.97;;;35.33;42.66
7668;BME280;3876;42.204;24.686;2022-08-19T07:58:31;99050.84;;;35.21;39.78
7668;BME280;3876;42.204;24.686;2022-08-19T08:00:58;99048.50;;;35.38;41.87
7668;BME280;3876;42.204;24.686;2022-08-19T08:03:25;99043.34;;;35.43;40.29
7668;BME280;3876;42.204;24.686;2022-08-19T08:06:06;99049.78;;;35.67;38.63
7668;BME280;3876;42.204;24.686;2022-08-19T08:08:51;99052.75;;;35.77;39.12
7668;BME280;3876;42.204;24.686;2022-08-19T08:11:36;99053.00;;;36.00;39.40
7668;BME280;3876;42.204;24.686;2022-08-19T08:14:02;99045.25;;;36.23;40.19
7668;BME280;3876;42.204;24.686;2022-08-19T08:16:30;99046.91;;;36.43;36.76
7668;BME280;3876;42.204;24.686;2022-08-19T08:18:57;99049.50;;;36.49;37.69
7668;BME280;3876;42.204;24.686;2022-08-19T08:21:23;99039.97;;;36.60;37.64
7668;BME280;3876;42.204;24.686;2022-08-19T08:23:51;99045.09;;;36.79;37.37
7668;BME280;3876;42.204;24.686;2022-08-19T08:26:20;99041.75;;;36.84;36.99
7668;BME280;3876;42.204;24.686;2022-08-19T08:28:47;99040.25;;;36.88;38.53
7668;BME280;3876;42.204;24.686;2022-08-19T08:31:14;99040.50;;;36.87;37.01
7668;BME280;3876;42.204;24.686;2022-08-19T08:33:41;99022.38;;;36.89;36.80
7668;BME280;3876;42.204;24.686;2022-08-19T08:36:08;99039.69;;;37.04;36.96
7668;BME280;3876;42.204;24.686;2022-08-19T08:38:39;99043.09;;;37.11;37.51
7668;BME280;3876;42.204;24.686;2022-08-19T08:41:17;99025.88;;;37.07;38.36
7668;BME280;3876;42.204;24.686;2022-08-19T08:43:47;99025.69;;;37.20;38.19
7668;BME280;3876;42.204;24.686;2022-08-19T08:46:21;99015.84;;;37.32;38.74
7668;BME280;3876;42.204;24.686;2022-08-19T08:48:54;99024.22;;;37.36;35.45
7668;BME280;3876;42.204;24.686;2022-08-19T08:51:25;99017.59;;;37.39;35.18
7668;BME280;3876;42.204;24.686;2022-08-19T08:53:55;99029.00;;;37.64;37.09
7668;BME280;3876;42.204;24.686;2022-08-19T08:56:23;99022.50;;;37.71;36.01
7668;BME280;3876;42.204;24.686;2022-08-19T08:58:57;99018.50;;;37.92;36.18
7668;BME280;3876;42.204;24.686;2022-08-19T09:01:25;99024.94;;;37.84;38.15
7668;BME280;3876;42.204;24.686;2022-08-19T09:03:53;99012.41;;;37.85;37.25
7668;BME280;3876;42.204;24.686;2022-08-19T09:06:25;99006.16;;;37.91;37.04
7668;BME280;3876;42.204;24.686;2022-08-19T09:09:01;99017.56;;;37.98;36.27
7668;BME280;3876;42.204;24.686;2022-08-19T09:11:44;99007.66;;;38.10;39.79
7668;BME280;3876;42.204;24.686;2022-08-19T09:14:21;99011.50;;;38.14;34.02
7668;BME280;3876;42.204;24.686;2022-08-19T09:16:50;99002.78;;;38.30;35.52
7668;BME280;3876;42.204;24.686;2022-08-19T09:19:17;99005.22;;;38.44;33.65
7668;BME280;3876;42.204;24.686;2022-08-19T09:21:44;99001.97;;;38.18;31.57
7668;BME280;3876;42.204;24.686;2022-08-19T09:24:12;98998.25;;;37.96;33.80
7668;BME280;3876;42.204;24.686;2022-08-19T09:26:40;99000.56;;;37.93;34.16
7668;BME280;3876;42.204;24.686;2022-08-19T09:29:09;98997.38;;;37.72;33.76
7668;BME280;3876;42.204;24.686;2022-08-19T09:31:36;98989.34;;;37.61;34.86
7668;BME280;3876;42.204;24.686;2022-08-19T09:34:03;98984.22;;;37.71;33.78
7668;BME280;3876;42.204;24.686;2022-08-19T09:36:31;98994.00;;;37.77;33.31
7668;BME280;3876;42.204;24.686;2022-08-19T09:38:59;98985.63;;;37.85;32.48
7668;BME280;3876;42.204;24.686;2022-08-19T09:41:26;98972.72;;;37.70;33.74
7668;BME280;3876;42.204;24.686;2022-08-19T09:43:56;98982.84;;;37.80;32.40
7668;BME280;3876;42.204;24.686;2022-08-19T09:46:25;98991.19;;;37.60;33.78
7668;BME280;3876;42.204;24.686;2022-08-19T09:48:53;98980.13;;;37.57;34.23
7668;BME280;3876;42.204;24.686;2022-08-19T09:51:23;98985.84;;;37.72;33.41
7668;BME280;3876;42.204;24.686;2022-08-19T09:53:51;98975.56;;;37.46;32.33
7668;BME280;3876;42.204;24.686;2022-08-19T09:56:20;98971.31;;;37.26;32.39
7668;BME280;3876;42.204;24.686;2022-08-19T09:58:48;98976.19;;;37.29;33.83
7668;BME280;3876;42.204;24.686;2022-08-19T10:01:19;98975.25;;;37.54;33.99
7668;BME280;3876;42.204;24.686;2022-08-19T10:03:48;98978.63;;;37.61;33.86
7668;BME280;3876;42.204;24.686;2022-08-19T10:06:16;98963.88;;;37.81;32.93
7668;BME280;3876;42.204;24.686;2022-08-19T10:08:43;98962.38;;;37.97;33.71
7668;BME280;3876;42.204;24.686;2022-08-19T10:11:10;98960.53;;;38.09;33.38
7668;BME280;3876;42.204;24.686;2022-08-19T10:13:40;98955.16;;;38.21;33.10
7668;BME280;3876;42.204;24.686;2022-08-19T10:16:08;98958.88;;;38.31;34.19
7668;BME280;3876;42.204;24.686;2022-08-19T10:18:37;98951.41;;;38.33;34.11
7668;BME280;3876;42.204;24.686;2022-08-19T10:21:08;98950.84;;;38.43;33.55
7668;BME280;3876;42.204;24.686;2022-08-19T10:23:36;98945.72;;;38.42;31.08
7668;BME280;3876;42.204;24.686;2022-08-19T10:26:04;98944.81;;;38.24;31.39
7668;BME280;3876;42.204;24.686;2022-08-19T10:28:32;98928.53;;;38.03;31.50
7668;BME280;3876;42.204;24.686;2022-08-19T10:31:04;98936.69;;;37.96;32.22
7668;BME280;3876;42.204;24.686;2022-08-19T10:33:32;98938.88;;;38.11;33.39
7668;BME280;3876;42.204;24.686;2022-08-19T10:36:02;98936.06;;;38.29;32.96
7668;BME280;3876;42.204;24.686;2022-08-19T10:38:32;98914.97;;;38.32;31.67
7668;BME280;3876;42.204;24.686;2022-08-19T10:41:07;98941.63;;;38.51;31.16
7668;BME280;3876;42.204;24.686;2022-08-19T10:43:34;98939.53;;;38.53;31.00
7668;BME280;3876;42.204;24.686;2022-08-19T10:46:04;98916.84;;;38.32;30.31
7668;BME280;3876;42.204;24.686;2022-08-19T10:48:31;98934.31;;;38.34;28.89
7668;BME280;3876;42.204;24.686;2022-08-19T10:50:58;98928.16;;;38.22;29.99
7668;BME280;3876;42.204;24.686;2022-08-19T10:53:44;98927.56;;;38.20;29.33
7668;BME280;3876;42.204;24.686;2022-08-19T10:56:11;98924.41;;;38.23;29.96
7668;BME280;3876;42.204;24.686;2022-08-19T10:58:55;98921.53;;;38.02;30.91
7668;BME280;3876;42.204;24.686;2022-08-19T11:01:24;98924.44;;;38.00;30.32
7668;BME280;3876;42.204;24.686;2022-08-19T11:03:51;98920.94;;;37.88;30.09
7668;BME280;3876;42.204;24.686;2022-08-19T11:06:18;98918.06;;;38.01;31.68
7668;BME280;3876;42.204;24.686;2022-08-19T11:08:47;98916.28;;;38.18;32.83
7668;BME280;3876;42.204;24.686;2022-08-19T11:11:14;98907.66;;;38.16;29.38
7668;BME280;3876;42.204;24.686;2022-08-19T11:13:41;98908.13;;;38.37;29.59
7668;BME280;3876;42.204;24.686;2022-08-19T11:16:12;98895.41;;;38.44;28.37
7668;BME280;3876;42.204;24.686;2022-08-19T11:18:43;98901.31;;;38.57;30.03
7668;BME280;3876;42.204;24.686;2022-08-19T11:21:12;98913.69;;;38.47;29.14
7668;BME280;3876;42.204;24.686;2022-08-19T11:23:39;98907.16;;;38.43;28.60
7668;BME280;3876;42.204;24.686;2022-08-19T11:26:07;98900.06;;;38.48;30.32
7668;BME280;3876;42.204;24.686;2022-08-19T11:28:35;98900.06;;;38.48;29.46
7668;BME280;3876;42.204;24.686;2022-08-19T11:31:02;98902.84;;;38.53;29.84
7668;BME280;3876;42.204;24.686;2022-08-19T11:33:29;98893.41;;;38.51;29.32
7668;BME280;3876;42.204;24.686;2022-08-19T11:35:57;98896.78;;;38.46;28.31
7668;BME280;3876;42.204;24.686;2022-08-19T11:38:24;98880.22;;;38.09;29.59
7668;BME280;3876;42.204;24.686;2022-08-19T11:40:55;98889.03;;;38.10;29.25
7668;BME280;3876;42.204;24.686;2022-08-19T11:43:24;98879.63;;;38.07;30.20
7668;BME280;3876;42.204;24.686;2022-08-19T11:45:52;98880.34;;;38.03;31.96
7668;BME280;3876;42.204;24.686;2022-08-19T11:48:19;98871.97;;;37.99;30.22
7668;BME280;3876;42.204;24.686;2022-08-19T11:50:47;98877.66;;;38.14;30.59
7668;BME280;3876;42.204;24.686;2022-08-19T11:53:15;98875.25;;;38.29;32.33
7668;BME280;3876;42.204;24.686;2022-08-19T11:55:41;98869.91;;;38.41;29.71
7668;BME280;3876;42.204;24.686;2022-08-19T11:58:10;98875.50;;;38.40;29.77
7668;BME280;3876;42.204;24.686;2022-08-19T12:00:39;98860.97;;;38.24;30.03
7668;BME280;3876;42.204;24.686;2022-08-19T12:03:06;98871.47;;;38.14;29.61
7668;BME280;3876;42.204;24.686;2022-08-19T12:05:33;98855.44;;;38.02;28.91
7668;BME280;3876;42.204;24.686;2022-08-19T12:08:00;98857.38;;;38.18;29.41
7668;BME280;3876;42.204;24.686;2022-08-19T12:10:27;98858.84;;;38.26;29.94
7668;BME280;3876;42.204;24.686;2022-08-19T12:12:53;98843.00;;;37.73;29.93
7668;BME280;3876;42.204;24.686;2022-08-19T12:15:21;98853.59;;;37.79;29.48
7668;BME280;3876;42.204;24.686;2022-08-19T12:17:49;98851.13;;;37.78;29.73
7668;BME280;3876;42.204;24.686;2022-08-19T12:20:18;98848.25;;;37.91;30.19
7668;BME280;3876;42.204;24.686;2022-08-19T12:22:45;98848.94;;;37.98;30.02
7668;BME280;3876;42.204;24.686;2022-08-19T12:25:14;98839.25;;;37.97;31.24
7668;BME280;3876;42.204;24.686;2022-08-19T12:27:41;98838.66;;;38.07;29.76
7668;BME280;3876;42.204;24.686;2022-08-19T12:30:10;98844.47;;;38.15;28.87
7668;BME280;3876;42.204;24.686;2022-08-19T12:32:38;98837.56;;;38.19;29.86
7668;BME280;3876;42.204;24.686;2022-08-19T12:35:07;98829.38;;;37.98;29.22
7668;BME280;3876;42.204;24.686;2022-08-19T12:37:35;98839.13;;;38.04;28.91
7668;BME280;3876;42.204;24.686;2022-08-19T12:40:03;98833.84;;;38.20;29.40
7668;BME280;3876;42.204;24.686;2022-08-19T12:42:30;98830.56;;;38.30;30.02
7668;BME280;3876;42.204;24.686;2022-08-19T12:44:57;98837.34;;;38.21;28.54
7668;BME280;3876;42.204;24.686;2022-08-19T12:47:24;98826.41;;;38.22;29.25
7668;BME280;3876;42.204;24.686;2022-08-19T12:49:52;98833.50;;;38.28;30.34
7668;BME280;3876;42.204;24.686;2022-08-19T12:52:22;98826.59;;;38.32;28.72
7668;BME280;3876;42.204;24.686;2022-08-19T12:54:49;98825.34;;;38.23;27.74
7668;BME280;3876;42.204;24.686;2022-08-19T12:57:16;98825.78;;;38.32;28.53
7668;BME280;3876;42.204;24.686;2022-08-19T12:59:43;98832.38;;;38.13;28.73
7668;BME280;3876;42.204;24.686;2022-08-19T13:02:10;98823.06;;;38.15;29.79
7668;BME280;3876;42.204;24.686;2022-08-19T13:04:37;98821.81;;;38.06;28.90
7668;BME280;3876;42.204;24.686;2022-08-19T13:07:06;98820.25;;;38.10;29.87
7668;BME280;3876;42.204;24.686;2022-08-19T13:09:34;98817.59;;;38.10;28.44
7668;BME280;3876;42.204;24.686;2022-08-19T13:12:02;98817.59;;;38.10;29.22
7668;BME280;3876;42.204;24.686;2022-08-19T13:14:33;98815.16;;;38.09;29.18
7668;BME280;3876;42.204;24.686;2022-08-19T13:17:00;98812.34;;;38.15;29.48